Tamiment, Pennsylvania
Current Conditions -  °F | °C
As of 5:53 PM on Saturday 20 Dec 2014 (Local Time) from KMPO Reporting Station
Overcast Overcast  
Wind Chill: 19°   Ceiling: 1700
Heat Index: 25°   Visibility: 10mi
Dew Point: 17°   Wind: 5mph
Humidity: 72%   Direction: 320°NW
Pressure: 30.18"   Gusts: NA
Location:  41.14°N, 75.03°W
Report Text: KMPO 202253Z AUTO 32004KT 10SM OVC017 M04/M08 A3018 RMK AO2 SLP247 T10391083
Loading
Personal Weather Stations






























Interactive Weather Map New forecast layout! Learn more

10-Day Weather Forecast

Advertisements
Track Severe Weather on mobile